sensor_id;sensor_type;location;lat;lon;timestamp;P1;durP1;ratioP1;P2;durP2;ratioP2
78718;SDS011;68046;53.334;9.538;2023-05-10T00:01:23;6.28;;;2.30;;
78718;SDS011;68046;53.334;9.538;2023-05-10T00:03:53;4.13;;;2.17;;
78718;SDS011;68046;53.334;9.538;2023-05-10T00:06:23;5.15;;;2.72;;
78718;SDS011;68046;53.334;9.538;2023-05-10T00:08:53;4.65;;;2.55;;
78718;SDS011;68046;53.334;9.538;2023-05-10T00:11:23;5.25;;;2.30;;
78718;SDS011;68046;53.334;9.538;2023-05-10T00:13:56;5.28;;;2.80;;
78718;SDS011;68046;53.334;9.538;2023-05-10T00:16:26;4.88;;;2.45;;
78718;SDS011;68046;53.334;9.538;2023-05-10T00:18:56;4.88;;;2.80;;
78718;SDS011;68046;53.334;9.538;2023-05-10T00:21:26;4.63;;;2.55;;
78718;SDS011;68046;53.334;9.538;2023-05-10T00:23:56;4.65;;;2.70;;
78718;SDS011;68046;53.334;9.538;2023-05-10T00:26:26;3.65;;;2.55;;
78718;SDS011;68046;53.334;9.538;2023-05-10T00:28:59;4.78;;;2.50;;
78718;SDS011;68046;53.334;9.538;2023-05-10T00:31:29;4.13;;;2.47;;
78718;SDS011;68046;53.334;9.538;2023-05-10T00:33:59;3.78;;;2.70;;
78718;SDS011;68046;53.334;9.538;2023-05-10T00:36:29;3.97;;;2.78;;
78718;SDS011;68046;53.334;9.538;2023-05-10T00:38:59;4.70;;;2.70;;
78718;SDS011;68046;53.334;9.538;2023-05-10T00:41:30;3.88;;;2.53;;
78718;SDS011;68046;53.334;9.538;2023-05-10T00:44:03;3.95;;;2.50;;
78718;SDS011;68046;53.334;9.538;2023-05-10T00:46:33;4.65;;;3.00;;
78718;SDS011;68046;53.334;9.538;2023-05-10T00:49:04;3.75;;;2.60;;
78718;SDS011;68046;53.334;9.538;2023-05-10T00:51:34;5.45;;;2.60;;
78718;SDS011;68046;53.334;9.538;2023-05-10T00:54:04;4.30;;;2.60;;
78718;SDS011;68046;53.334;9.538;2023-05-10T00:56:34;2.97;;;2.40;;
78718;SDS011;68046;53.334;9.538;2023-05-10T00:59:07;6.18;;;2.70;;
78718;SDS011;68046;53.334;9.538;2023-05-10T01:01:37;3.40;;;2.65;;
78718;SDS011;68046;53.334;9.538;2023-05-10T01:04:07;5.00;;;3.20;;
78718;SDS011;68046;53.334;9.538;2023-05-10T01:06:38;3.78;;;2.65;;
78718;SDS011;68046;53.334;9.538;2023-05-10T01:09:08;4.10;;;2.58;;
78718;SDS011;68046;53.334;9.538;2023-05-10T01:11:38;5.47;;;2.83;;
78718;SDS011;68046;53.334;9.538;2023-05-10T01:14:11;4.47;;;3.20;;
78718;SDS011;68046;53.334;9.538;2023-05-10T01:16:41;4.15;;;2.70;;
78718;SDS011;68046;53.334;9.538;2023-05-10T01:19:12;4.40;;;2.50;;
78718;SDS011;68046;53.334;9.538;2023-05-10T01:21:48;3.95;;;2.58;;
78718;SDS011;68046;53.334;9.538;2023-05-10T01:24:31;5.00;;;2.80;;
78718;SDS011;68046;53.334;9.538;2023-05-10T01:27:25;5.03;;;2.60;;
78718;SDS011;68046;53.334;9.538;2023-05-10T01:30:30;4.47;;;2.58;;
78718;SDS011;68046;53.334;9.538;2023-05-10T01:33:13;6.93;;;2.70;;
78718;SDS011;68046;53.334;9.538;2023-05-10T01:35:47;5.53;;;2.90;;
78718;SDS011;68046;53.334;9.538;2023-05-10T01:38:31;5.53;;;2.83;;
78718;SDS011;68046;53.334;9.538;2023-05-10T01:41:12;6.00;;;2.60;;
78718;SDS011;68046;53.334;9.538;2023-05-10T01:43:47;3.55;;;2.67;;
78718;SDS011;68046;53.334;9.538;2023-05-10T01:46:23;6.10;;;2.50;;
78718;SDS011;68046;53.334;9.538;2023-05-10T01:48:59;3.47;;;2.50;;
78718;SDS011;68046;53.334;9.538;2023-05-10T01:51:31;3.85;;;2.67;;
78718;SDS011;68046;53.334;9.538;2023-05-10T01:54:05;4.93;;;2.72;;
78718;SDS011;68046;53.334;9.538;2023-05-10T01:56:35;4.13;;;2.95;;
78718;SDS011;68046;53.334;9.538;2023-05-10T01:59:08;5.22;;;3.20;;
78718;SDS011;68046;53.334;9.538;2023-05-10T02:01:41;7.90;;;3.38;;
78718;SDS011;68046;53.334;9.538;2023-05-10T02:04:14;5.40;;;2.85;;
78718;SDS011;68046;53.334;9.538;2023-05-10T02:06:46;7.38;;;3.03;;
78718;SDS011;68046;53.334;9.538;2023-05-10T02:09:18;3.15;;;2.40;;
78718;SDS011;68046;53.334;9.538;2023-05-10T02:11:49;4.43;;;3.13;;
78718;SDS011;68046;53.334;9.538;2023-05-10T02:14:19;3.50;;;2.75;;
78718;SDS011;68046;53.334;9.538;2023-05-10T02:16:51;4.13;;;3.05;;
78718;SDS011;68046;53.334;9.538;2023-05-10T02:19:25;5.22;;;3.50;;
78718;SDS011;68046;53.334;9.538;2023-05-10T02:21:55;5.60;;;2.80;;
78718;SDS011;68046;53.334;9.538;2023-05-10T02:24:27;5.20;;;2.90;;
78718;SDS011;68046;53.334;9.538;2023-05-10T02:26:59;3.78;;;2.72;;
78718;SDS011;68046;53.334;9.538;2023-05-10T02:29:30;5.03;;;3.17;;
78718;SDS011;68046;53.334;9.538;2023-05-10T02:32:01;3.95;;;3.00;;
78718;SDS011;68046;53.334;9.538;2023-05-10T02:34:35;4.45;;;2.97;;
78718;SDS011;68046;53.334;9.538;2023-05-10T02:37:06;4.63;;;2.83;;
78718;SDS011;68046;53.334;9.538;2023-05-10T02:39:36;5.35;;;3.10;;
78718;SDS011;68046;53.334;9.538;2023-05-10T02:42:11;4.65;;;2.88;;
78718;SDS011;68046;53.334;9.538;2023-05-10T02:44:45;4.70;;;3.40;;
78718;SDS011;68046;53.334;9.538;2023-05-10T02:47:18;7.70;;;3.60;;
78718;SDS011;68046;53.334;9.538;2023-05-10T02:49:50;3.80;;;2.70;;
78718;SDS011;68046;53.334;9.538;2023-05-10T02:52:22;5.10;;;2.88;;
78718;SDS011;68046;53.334;9.538;2023-05-10T02:54:55;3.88;;;2.47;;
78718;SDS011;68046;53.334;9.538;2023-05-10T02:57:26;5.10;;;2.85;;
78718;SDS011;68046;53.334;9.538;2023-05-10T02:59:58;4.25;;;2.72;;
78718;SDS011;68046;53.334;9.538;2023-05-10T03:02:29;6.68;;;2.80;;
78718;SDS011;68046;53.334;9.538;2023-05-10T03:05:02;5.80;;;2.90;;
78718;SDS011;68046;53.334;9.538;2023-05-10T03:07:33;7.68;;;3.17;;
78718;SDS011;68046;53.334;9.538;2023-05-10T03:10:04;4.78;;;3.20;;
78718;SDS011;68046;53.334;9.538;2023-05-10T03:12:41;6.15;;;2.90;;
78718;SDS011;68046;53.334;9.538;2023-05-10T03:15:19;4.60;;;3.15;;
78718;SDS011;68046;53.334;9.538;2023-05-10T03:18:01;6.53;;;3.28;;
78718;SDS011;68046;53.334;9.538;2023-05-10T03:20:38;4.80;;;2.95;;
78718;SDS011;68046;53.334;9.538;2023-05-10T03:23:13;5.45;;;3.20;;
78718;SDS011;68046;53.334;9.538;2023-05-10T03:25:51;5.47;;;2.92;;
78718;SDS011;68046;53.334;9.538;2023-05-10T03:28:22;6.72;;;3.30;;
78718;SDS011;68046;53.334;9.538;2023-05-10T03:30:55;5.05;;;2.70;;
78718;SDS011;68046;53.334;9.538;2023-05-10T03:33:26;4.32;;;2.80;;
78718;SDS011;68046;53.334;9.538;2023-05-10T03:35:58;6.95;;;3.28;;
78718;SDS011;68046;53.334;9.538;2023-05-10T03:38:28;5.20;;;3.17;;
78718;SDS011;68046;53.334;9.538;2023-05-10T03:40:58;5.00;;;2.90;;
78718;SDS011;68046;53.334;9.538;2023-05-10T03:43:28;7.10;;;2.92;;
78718;SDS011;68046;53.334;9.538;2023-05-10T03:45:59;4.75;;;3.13;;
78718;SDS011;68046;53.334;9.538;2023-05-10T03:48:31;4.10;;;2.97;;
78718;SDS011;68046;53.334;9.538;2023-05-10T03:51:04;4.22;;;3.20;;
78718;SDS011;68046;53.334;9.538;2023-05-10T03:53:34;4.32;;;3.03;;
78718;SDS011;68046;53.334;9.538;2023-05-10T03:56:05;4.70;;;2.97;;
78718;SDS011;68046;53.334;9.538;2023-05-10T03:58:35;4.43;;;2.95;;
78718;SDS011;68046;53.334;9.538;2023-05-10T04:01:05;5.18;;;3.08;;
78718;SDS011;68046;53.334;9.538;2023-05-10T04:03:35;5.50;;;3.33;;
78718;SDS011;68046;53.334;9.538;2023-05-10T04:06:08;4.13;;;2.75;;
78718;SDS011;68046;53.334;9.538;2023-05-10T04:08:38;8.30;;;3.00;;
78718;SDS011;68046;53.334;9.538;2023-05-10T04:11:09;3.70;;;2.67;;
78718;SDS011;68046;53.334;9.538;2023-05-10T04:13:40;3.78;;;2.85;;
78718;SDS011;68046;53.334;9.538;2023-05-10T04:16:10;4.20;;;2.80;;
78718;SDS011;68046;53.334;9.538;2023-05-10T04:18:40;4.47;;;3.05;;
78718;SDS011;68046;53.334;9.538;2023-05-10T04:21:16;4.55;;;3.00;;
78718;SDS011;68046;53.334;9.538;2023-05-10T04:23:46;6.93;;;2.95;;
78718;SDS011;68046;53.334;9.538;2023-05-10T04:26:16;4.60;;;2.80;;
78718;SDS011;68046;53.334;9.538;2023-05-10T04:28:46;4.68;;;3.20;;
78718;SDS011;68046;53.334;9.538;2023-05-10T04:31:16;7.45;;;2.78;;
78718;SDS011;68046;53.334;9.538;2023-05-10T04:33:47;5.72;;;3.55;;
78718;SDS011;68046;53.334;9.538;2023-05-10T04:36:19;5.13;;;3.50;;
78718;SDS011;68046;53.334;9.538;2023-05-10T04:38:49;5.85;;;3.08;;
78718;SDS011;68046;53.334;9.538;2023-05-10T04:41:19;6.28;;;3.00;;
78718;SDS011;68046;53.334;9.538;2023-05-10T04:43:49;5.05;;;3.20;;
78718;SDS011;68046;53.334;9.538;2023-05-10T04:46:19;3.83;;;3.05;;
78718;SDS011;68046;53.334;9.538;2023-05-10T04:48:49;9.93;;;3.70;;
78718;SDS011;68046;53.334;9.538;2023-05-10T04:51:21;4.35;;;3.13;;
78718;SDS011;68046;53.334;9.538;2023-05-10T04:53:51;5.00;;;3.22;;
78718;SDS011;68046;53.334;9.538;2023-05-10T04:56:32;5.13;;;3.15;;
78718;SDS011;68046;53.334;9.538;2023-05-10T04:59:02;7.18;;;3.42;;
78718;SDS011;68046;53.334;9.538;2023-05-10T05:01:32;5.38;;;3.13;;
78718;SDS011;68046;53.334;9.538;2023-05-10T05:04:02;4.35;;;3.22;;
78718;SDS011;68046;53.334;9.538;2023-05-10T05:06:40;4.65;;;3.33;;
78718;SDS011;68046;53.334;9.538;2023-05-10T05:09:10;6.30;;;3.42;;
78718;SDS011;68046;53.334;9.538;2023-05-10T05:11:40;4.93;;;3.05;;
78718;SDS011;68046;53.334;9.538;2023-05-10T05:14:09;5.18;;;3.42;;
78718;SDS011;68046;53.334;9.538;2023-05-10T05:16:39;4.65;;;2.95;;
78718;SDS011;68046;53.334;9.538;2023-05-10T05:19:09;3.97;;;2.75;;
78718;SDS011;68046;53.334;9.538;2023-05-10T05:21:41;5.10;;;3.10;;
78718;SDS011;68046;53.334;9.538;2023-05-10T05:24:11;8.68;;;3.50;;
78718;SDS011;68046;53.334;9.538;2023-05-10T05:26:41;4.18;;;3.10;;
78718;SDS011;68046;53.334;9.538;2023-05-10T05:29:11;4.72;;;3.50;;
78718;SDS011;68046;53.334;9.538;2023-05-10T05:31:43;4.38;;;2.83;;
78718;SDS011;68046;53.334;9.538;2023-05-10T05:34:13;5.50;;;3.15;;
78718;SDS011;68046;53.334;9.538;2023-05-10T05:36:46;4.35;;;3.05;;
78718;SDS011;68046;53.334;9.538;2023-05-10T05:39:15;4.72;;;3.25;;
78718;SDS011;68046;53.334;9.538;2023-05-10T05:41:45;4.40;;;3.38;;
78718;SDS011;68046;53.334;9.538;2023-05-10T05:44:15;4.70;;;3.20;;
78718;SDS011;68046;53.334;9.538;2023-05-10T05:46:45;4.97;;;3.00;;
78718;SDS011;68046;53.334;9.538;2023-05-10T05:49:14;8.45;;;3.60;;
78718;SDS011;68046;53.334;9.538;2023-05-10T05:51:47;6.18;;;3.47;;
78718;SDS011;68046;53.334;9.538;2023-05-10T05:54:17;5.45;;;3.25;;
78718;SDS011;68046;53.334;9.538;2023-05-10T05:56:46;7.25;;;3.30;;
78718;SDS011;68046;53.334;9.538;2023-05-10T05:59:16;4.10;;;3.17;;
78718;SDS011;68046;53.334;9.538;2023-05-10T06:01:46;4.93;;;3.25;;
78718;SDS011;68046;53.334;9.538;2023-05-10T06:04:16;4.78;;;2.80;;
78718;SDS011;68046;53.334;9.538;2023-05-10T06:06:48;5.45;;;2.92;;
78718;SDS011;68046;53.334;9.538;2023-05-10T06:09:18;4.65;;;2.88;;
78718;SDS011;68046;53.334;9.538;2023-05-10T06:11:50;5.32;;;2.90;;
78718;SDS011;68046;53.334;9.538;2023-05-10T06:14:19;5.85;;;3.42;;
78718;SDS011;68046;53.334;9.538;2023-05-10T06:16:49;4.68;;;3.20;;
78718;SDS011;68046;53.334;9.538;2023-05-10T06:19:19;3.90;;;3.03;;
78718;SDS011;68046;53.334;9.538;2023-05-10T06:21:51;6.78;;;3.33;;
78718;SDS011;68046;53.334;9.538;2023-05-10T06:24:21;4.72;;;3.40;;
78718;SDS011;68046;53.334;9.538;2023-05-10T06:26:52;6.15;;;3.47;;
78718;SDS011;68046;53.334;9.538;2023-05-10T06:29:22;5.20;;;3.67;;
78718;SDS011;68046;53.334;9.538;2023-05-10T06:31:52;5.35;;;3.30;;
78718;SDS011;68046;53.334;9.538;2023-05-10T06:34:22;5.53;;;3.53;;
78718;SDS011;68046;53.334;9.538;2023-05-10T06:36:55;5.40;;;3.38;;
78718;SDS011;68046;53.334;9.538;2023-05-10T06:39:24;4.47;;;3.10;;
78718;SDS011;68046;53.334;9.538;2023-05-10T06:41:55;5.03;;;3.45;;
78718;SDS011;68046;53.334;9.538;2023-05-10T06:44:31;4.55;;;3.10;;
78718;SDS011;68046;53.334;9.538;2023-05-10T06:47:01;5.90;;;3.92;;
78718;SDS011;68046;53.334;9.538;2023-05-10T06:49:31;4.45;;;2.75;;
78718;SDS011;68046;53.334;9.538;2023-05-10T06:52:03;4.93;;;3.08;;
78718;SDS011;68046;53.334;9.538;2023-05-10T06:54:33;5.32;;;3.17;;
78718;SDS011;68046;53.334;9.538;2023-05-10T06:57:03;5.07;;;2.97;;
78718;SDS011;68046;53.334;9.538;2023-05-10T06:59:45;8.13;;;3.35;;
78718;SDS011;68046;53.334;9.538;2023-05-10T07:02:15;5.80;;;3.58;;
78718;SDS011;68046;53.334;9.538;2023-05-10T07:04:45;4.85;;;3.38;;
78718;SDS011;68046;53.334;9.538;2023-05-10T07:07:19;4.93;;;3.00;;
78718;SDS011;68046;53.334;9.538;2023-05-10T07:09:49;5.05;;;3.65;;
78718;SDS011;68046;53.334;9.538;2023-05-10T07:12:19;7.18;;;3.78;;
78718;SDS011;68046;53.334;9.538;2023-05-10T07:14:48;6.10;;;3.75;;
78718;SDS011;68046;53.334;9.538;2023-05-10T07:17:18;5.40;;;3.80;;
78718;SDS011;68046;53.334;9.538;2023-05-10T07:19:48;5.38;;;3.65;;
78718;SDS011;68046;53.334;9.538;2023-05-10T07:22:21;8.30;;;4.72;;
78718;SDS011;68046;53.334;9.538;2023-05-10T07:24:51;6.70;;;3.78;;
78718;SDS011;68046;53.334;9.538;2023-05-10T07:27:20;5.93;;;4.28;;
78718;SDS011;68046;53.334;9.538;2023-05-10T07:29:50;5.93;;;4.10;;
78718;SDS011;68046;53.334;9.538;2023-05-10T07:32:21;8.23;;;4.50;;
78718;SDS011;68046;53.334;9.538;2023-05-10T07:34:51;7.15;;;4.88;;
78718;SDS011;68046;53.334;9.538;2023-05-10T07:37:23;7.13;;;4.28;;
78718;SDS011;68046;53.334;9.538;2023-05-10T07:39:53;6.68;;;4.50;;
78718;SDS011;68046;53.334;9.538;2023-05-10T07:42:23;7.28;;;4.43;;
78718;SDS011;68046;53.334;9.538;2023-05-10T07:44:52;6.50;;;4.60;;
78718;SDS011;68046;53.334;9.538;2023-05-10T07:47:22;6.90;;;4.13;;
78718;SDS011;68046;53.334;9.538;2023-05-10T07:49:52;10.00;;;5.35;;
78718;SDS011;68046;53.334;9.538;2023-05-10T07:52:25;8.32;;;4.43;;
78718;SDS011;68046;53.334;9.538;2023-05-10T07:54:54;7.00;;;5.13;;
78718;SDS011;68046;53.334;9.538;2023-05-10T07:57:24;7.78;;;4.57;;
78718;SDS011;68046;53.334;9.538;2023-05-10T07:59:54;6.90;;;5.13;;
78718;SDS011;68046;53.334;9.538;2023-05-10T08:02:24;7.43;;;5.15;;
78718;SDS011;68046;53.334;9.538;2023-05-10T08:04:53;10.13;;;5.70;;
78718;SDS011;68046;53.334;9.538;2023-05-10T08:07:26;6.78;;;4.95;;
78718;SDS011;68046;53.334;9.538;2023-05-10T08:09:56;8.50;;;4.97;;
78718;SDS011;68046;53.334;9.538;2023-05-10T08:12:25;9.18;;;5.00;;
78718;SDS011;68046;53.334;9.538;2023-05-10T08:14:55;6.72;;;4.68;;
78718;SDS011;68046;53.334;9.538;2023-05-10T08:17:25;6.68;;;5.10;;
78718;SDS011;68046;53.334;9.538;2023-05-10T08:19:55;7.82;;;5.68;;
78718;SDS011;68046;53.334;9.538;2023-05-10T08:22:27;7.60;;;4.75;;
78718;SDS011;68046;53.334;9.538;2023-05-10T08:24:57;7.22;;;5.03;;
78718;SDS011;68046;53.334;9.538;2023-05-10T08:27:26;7.22;;;5.07;;
78718;SDS011;68046;53.334;9.538;2023-05-10T08:29:56;7.68;;;4.93;;
78718;SDS011;68046;53.334;9.538;2023-05-10T08:32:27;7.30;;;4.80;;
78718;SDS011;68046;53.334;9.538;2023-05-10T08:34:57;6.95;;;5.05;;
78718;SDS011;68046;53.334;9.538;2023-05-10T08:37:31;6.57;;;4.80;;
78718;SDS011;68046;53.334;9.538;2023-05-10T08:40:02;7.80;;;5.55;;
78718;SDS011;68046;53.334;9.538;2023-05-10T08:42:33;6.10;;;4.75;;
78718;SDS011;68046;53.334;9.538;2023-05-10T08:45:06;8.15;;;5.78;;
78718;SDS011;68046;53.334;9.538;2023-05-10T08:47:37;7.35;;;5.30;;
78718;SDS011;68046;53.334;9.538;2023-05-10T08:50:07;8.52;;;5.78;;
78718;SDS011;68046;53.334;9.538;2023-05-10T08:52:41;10.68;;;6.10;;
78718;SDS011;68046;53.334;9.538;2023-05-10T08:55:11;7.50;;;5.47;;
78718;SDS011;68046;53.334;9.538;2023-05-10T08:57:41;9.90;;;5.78;;
78718;SDS011;68046;53.334;9.538;2023-05-10T09:00:12;9.52;;;5.50;;
78718;SDS011;68046;53.334;9.538;2023-05-10T09:02:43;10.70;;;5.72;;
78718;SDS011;68046;53.334;9.538;2023-05-10T09:05:13;7.88;;;5.50;;
78718;SDS011;68046;53.334;9.538;2023-05-10T09:07:47;8.57;;;5.90;;
78718;SDS011;68046;53.334;9.538;2023-05-10T09:10:17;11.88;;;5.72;;
78718;SDS011;68046;53.334;9.538;2023-05-10T09:12:47;8.45;;;6.25;;
78718;SDS011;68046;53.334;9.538;2023-05-10T09:15:17;8.25;;;5.93;;
78718;SDS011;68046;53.334;9.538;2023-05-10T09:17:48;8.65;;;5.90;;
78718;SDS011;68046;53.334;9.538;2023-05-10T09:20:18;10.07;;;6.35;;
78718;SDS011;68046;53.334;9.538;2023-05-10T09:22:51;9.93;;;6.32;;
78718;SDS011;68046;53.334;9.538;2023-05-10T09:25:21;9.73;;;6.93;;
78718;SDS011;68046;53.334;9.538;2023-05-10T09:27:51;8.20;;;6.65;;
78718;SDS011;68046;53.334;9.538;2023-05-10T09:30:24;9.63;;;6.40;;
78718;SDS011;68046;53.334;9.538;2023-05-10T09:32:56;8.55;;;6.03;;
78718;SDS011;68046;53.334;9.538;2023-05-10T09:38:00;10.65;;;6.32;;
78718;SDS011;68046;53.334;9.538;2023-05-10T09:40:31;10.38;;;6.97;;
78718;SDS011;68046;53.334;9.538;2023-05-10T09:43:02;10.02;;;6.90;;
78718;SDS011;68046;53.334;9.538;2023-05-10T09:45:33;14.98;;;7.03;;
78718;SDS011;68046;53.334;9.538;2023-05-10T09:48:05;8.32;;;6.28;;
78718;SDS011;68046;53.334;9.538;2023-05-10T09:50:35;9.32;;;6.45;;
78718;SDS011;68046;53.334;9.538;2023-05-10T09:53:07;9.80;;;7.05;;
78718;SDS011;68046;53.334;9.538;2023-05-10T09:55:38;9.77;;;7.20;;
78718;SDS011;68046;53.334;9.538;2023-05-10T09:58:11;10.48;;;6.78;;
78718;SDS011;68046;53.334;9.538;2023-05-10T10:00:42;10.40;;;7.38;;
78718;SDS011;68046;53.334;9.538;2023-05-10T10:03:14;12.00;;;7.75;;
78718;SDS011;68046;53.334;9.538;2023-05-10T10:05:47;11.27;;;7.50;;
78718;SDS011;68046;53.334;9.538;2023-05-10T10:08:20;11.70;;;7.88;;
78718;SDS011;68046;53.334;9.538;2023-05-10T10:10:50;8.85;;;6.88;;
78718;SDS011;68046;53.334;9.538;2023-05-10T10:13:19;11.23;;;7.53;;
78718;SDS011;68046;53.334;9.538;2023-05-10T10:15:49;9.90;;;7.13;;
78718;SDS011;68046;53.334;9.538;2023-05-10T10:18:20;10.60;;;7.35;;
78718;SDS011;68046;53.334;9.538;2023-05-10T10:20:53;11.77;;;7.93;;
78718;SDS011;68046;53.334;9.538;2023-05-10T10:23:26;9.68;;;7.18;;
78718;SDS011;68046;53.334;9.538;2023-05-10T10:25:56;9.40;;;7.43;;
78718;SDS011;68046;53.334;9.538;2023-05-10T10:28:39;10.95;;;8.40;;
78718;SDS011;68046;53.334;9.538;2023-05-10T10:31:15;11.50;;;7.85;;
78718;SDS011;68046;53.334;9.538;2023-05-10T10:34:00;12.48;;;8.35;;
78718;SDS011;68046;53.334;9.538;2023-05-10T10:36:39;10.52;;;7.78;;
78718;SDS011;68046;53.334;9.538;2023-05-10T10:39:12;10.57;;;7.80;;
78718;SDS011;68046;53.334;9.538;2023-05-10T10:41:53;11.27;;;8.13;;
78718;SDS011;68046;53.334;9.538;2023-05-10T10:44:33;9.77;;;7.35;;
78718;SDS011;68046;53.334;9.538;2023-05-10T10:47:41;11.35;;;7.47;;
78718;SDS011;68046;53.334;9.538;2023-05-10T10:57:18;10.90;;;8.10;;
78718;SDS011;68046;53.334;9.538;2023-05-10T11:06:48;10.25;;;7.88;;
78718;SDS011;68046;53.334;9.538;2023-05-10T11:09:29;9.40;;;7.63;;
78718;SDS011;68046;53.334;9.538;2023-05-10T11:15:52;11.32;;;7.90;;
78718;SDS011;68046;53.334;9.538;2023-05-10T11:25:33;12.20;;;7.85;;
78718;SDS011;68046;53.334;9.538;2023-05-10T11:28:40;14.30;;;8.63;;
78718;SDS011;68046;53.334;9.538;2023-05-10T11:31:13;12.68;;;9.20;;
78718;SDS011;68046;53.334;9.538;2023-05-10T11:33:43;12.50;;;9.07;;
78718;SDS011;68046;53.334;9.538;2023-05-10T11:36:14;11.00;;;8.38;;
78718;SDS011;68046;53.334;9.538;2023-05-10T11:38:45;11.82;;;9.52;;
78718;SDS011;68046;53.334;9.538;2023-05-10T11:43:50;11.43;;;8.45;;
78718;SDS011;68046;53.334;9.538;2023-05-10T11:46:21;12.98;;;8.70;;
78718;SDS011;68046;53.334;9.538;2023-05-10T11:48:55;11.10;;;8.85;;
78718;SDS011;68046;53.334;9.538;2023-05-10T11:51:28;13.27;;;9.18;;
78718;SDS011;68046;53.334;9.538;2023-05-10T11:53:58;13.70;;;9.73;;
78718;SDS011;68046;53.334;9.538;2023-05-10T11:56:32;11.18;;;8.52;;
78718;SDS011;68046;53.334;9.538;2023-05-10T11:59:03;13.05;;;9.45;;
78718;SDS011;68046;53.334;9.538;2023-05-10T12:01:33;11.98;;;9.63;;
78718;SDS011;68046;53.334;9.538;2023-05-10T12:04:03;12.38;;;10.38;;
78718;SDS011;68046;53.334;9.538;2023-05-10T12:06:37;14.95;;;9.30;;
78718;SDS011;68046;53.334;9.538;2023-05-10T12:09:10;12.45;;;9.80;;
78718;SDS011;68046;53.334;9.538;2023-05-10T12:11:42;10.68;;;9.13;;
78718;SDS011;68046;53.334;9.538;2023-05-10T12:14:13;13.80;;;8.98;;
78718;SDS011;68046;53.334;9.538;2023-05-10T12:16:43;13.50;;;9.68;;
78718;SDS011;68046;53.334;9.538;2023-05-10T12:19:13;13.90;;;10.60;;
78718;SDS011;68046;53.334;9.538;2023-05-10T12:21:48;12.25;;;10.15;;
78718;SDS011;68046;53.334;9.538;2023-05-10T12:24:18;11.93;;;9.60;;
78718;SDS011;68046;53.334;9.538;2023-05-10T12:26:51;14.27;;;10.77;;
78718;SDS011;68046;53.334;9.538;2023-05-10T12:29:21;12.73;;;10.18;;
78718;SDS011;68046;53.334;9.538;2023-05-10T12:31:52;12.60;;;10.10;;
78718;SDS011;68046;53.334;9.538;2023-05-10T12:34:26;11.07;;;9.30;;
78718;SDS011;68046;53.334;9.538;2023-05-10T12:36:57;11.23;;;9.15;;
78718;SDS011;68046;53.334;9.538;2023-05-10T12:39:37;11.93;;;9.80;;
78718;SDS011;68046;53.334;9.538;2023-05-10T12:42:11;11.63;;;9.15;;
78718;SDS011;68046;53.334;9.538;2023-05-10T12:44:41;12.63;;;9.27;;
78718;SDS011;68046;53.334;9.538;2023-05-10T12:47:11;12.43;;;8.98;;
78718;SDS011;68046;53.334;9.538;2023-05-10T12:49:41;12.68;;;10.10;;
78718;SDS011;68046;53.334;9.538;2023-05-10T12:52:12;13.43;;;9.55;;
78718;SDS011;68046;53.334;9.538;2023-05-10T12:54:42;11.27;;;10.00;;
78718;SDS011;68046;53.334;9.538;2023-05-10T12:57:15;11.27;;;9.18;;
78718;SDS011;68046;53.334;9.538;2023-05-10T12:59:46;11.30;;;9.48;;
78718;SDS011;68046;53.334;9.538;2023-05-10T13:02:16;11.20;;;8.38;;
78718;SDS011;68046;53.334;9.538;2023-05-10T13:04:48;11.90;;;9.20;;
78718;SDS011;68046;53.334;9.538;2023-05-10T13:09:48;11.40;;;8.38;;
78718;SDS011;68046;53.334;9.538;2023-05-10T13:12:21;12.05;;;8.32;;
78718;SDS011;68046;53.334;9.538;2023-05-10T13:14:51;10.70;;;8.85;;
78718;SDS011;68046;53.334;9.538;2023-05-10T13:17:21;10.85;;;8.25;;
78718;SDS011;68046;53.334;9.538;2023-05-10T13:19:51;13.32;;;9.00;;
78718;SDS011;68046;53.334;9.538;2023-05-10T13:22:22;10.38;;;8.27;;
78718;SDS011;68046;53.334;9.538;2023-05-10T13:25:05;9.90;;;8.43;;
78718;SDS011;68046;53.334;9.538;2023-05-10T13:27:38;8.90;;;7.15;;
78718;SDS011;68046;53.334;9.538;2023-05-10T13:30:09;8.98;;;7.65;;
78718;SDS011;68046;53.334;9.538;2023-05-10T13:32:40;8.63;;;6.97;;
78718;SDS011;68046;53.334;9.538;2023-05-10T13:35:10;10.73;;;7.78;;
78718;SDS011;68046;53.334;9.538;2023-05-10T13:37:40;10.30;;;7.55;;
78718;SDS011;68046;53.334;9.538;2023-05-10T13:40:11;8.65;;;7.03;;
78718;SDS011;68046;53.334;9.538;2023-05-10T13:42:45;10.80;;;7.70;;
78718;SDS011;68046;53.334;9.538;2023-05-10T13:45:15;9.60;;;6.82;;
78718;SDS011;68046;53.334;9.538;2023-05-10T13:47:45;9.88;;;7.45;;
78718;SDS011;68046;53.334;9.538;2023-05-10T13:50:16;10.82;;;7.05;;
78718;SDS011;68046;53.334;9.538;2023-05-10T13:52:46;7.15;;;6.13;;
78718;SDS011;68046;53.334;9.538;2023-05-10T13:55:16;9.52;;;7.13;;
78718;SDS011;68046;53.334;9.538;2023-05-10T13:57:49;8.07;;;6.38;;
78718;SDS011;68046;53.334;9.538;2023-05-10T14:00:19;9.88;;;6.65;;
78718;SDS011;68046;53.334;9.538;2023-05-10T14:02:49;7.28;;;6.05;;
78718;SDS011;68046;53.334;9.538;2023-05-10T14:05:20;7.65;;;6.20;;
78718;SDS011;68046;53.334;9.538;2023-05-10T14:07:52;7.43;;;5.00;;
78718;SDS011;68046;53.334;9.538;2023-05-10T14:10:22;4.93;;;3.40;;
78718;SDS011;68046;53.334;9.538;2023-05-10T14:12:55;4.63;;;3.38;;
78718;SDS011;68046;53.334;9.538;2023-05-10T14:15:25;6.00;;;3.60;;
78718;SDS011;68046;53.334;9.538;2023-05-10T14:17:56;4.30;;;3.42;;
78718;SDS011;68046;53.334;9.538;2023-05-10T14:20:26;6.10;;;3.75;;
78718;SDS011;68046;53.334;9.538;2023-05-10T14:22:56;6.82;;;4.28;;
78718;SDS011;68046;53.334;9.538;2023-05-10T14:25:26;6.00;;;3.53;;
78718;SDS011;68046;53.334;9.538;2023-05-10T14:27:59;7.03;;;3.75;;
78718;SDS011;68046;53.334;9.538;2023-05-10T14:30:30;5.10;;;3.28;;
78718;SDS011;68046;53.334;9.538;2023-05-10T14:33:01;7.07;;;3.35;;
78718;SDS011;68046;53.334;9.538;2023-05-10T14:35:32;4.85;;;3.47;;
78718;SDS011;68046;53.334;9.538;2023-05-10T14:38:02;4.20;;;3.00;;
78718;SDS011;68046;53.334;9.538;2023-05-10T14:40:32;5.32;;;2.90;;
78718;SDS011;68046;53.334;9.538;2023-05-10T14:43:06;4.10;;;3.28;;
78718;SDS011;68046;53.334;9.538;2023-05-10T14:45:36;3.50;;;2.80;;
78718;SDS011;68046;53.334;9.538;2023-05-10T14:48:06;6.03;;;2.63;;
78718;SDS011;68046;53.334;9.538;2023-05-10T14:50:42;3.78;;;2.85;;
78718;SDS011;68046;53.334;9.538;2023-05-10T14:53:12;3.65;;;2.88;;
78718;SDS011;68046;53.334;9.538;2023-05-10T14:55:42;3.75;;;3.03;;
78718;SDS011;68046;53.334;9.538;2023-05-10T14:58:15;4.78;;;3.03;;
78718;SDS011;68046;53.334;9.538;2023-05-10T15:00:45;6.22;;;2.83;;
78718;SDS011;68046;53.334;9.538;2023-05-10T15:03:16;4.68;;;2.75;;
78718;SDS011;68046;53.334;9.538;2023-05-10T15:08:16;3.15;;;2.45;;
78718;SDS011;68046;53.334;9.538;2023-05-10T15:10:46;3.65;;;2.65;;
78718;SDS011;68046;53.334;9.538;2023-05-10T15:13:19;4.07;;;2.67;;
78718;SDS011;68046;53.334;9.538;2023-05-10T15:15:49;5.20;;;3.40;;
78718;SDS011;68046;53.334;9.538;2023-05-10T15:18:19;4.40;;;3.13;;
78718;SDS011;68046;53.334;9.538;2023-05-10T15:20:53;4.18;;;2.92;;
78718;SDS011;68046;53.334;9.538;2023-05-10T15:23:25;4.00;;;2.67;;
78718;SDS011;68046;53.334;9.538;2023-05-10T15:25:56;6.65;;;3.40;;
78718;SDS011;68046;53.334;9.538;2023-05-10T15:28:29;3.88;;;3.00;;
78718;SDS011;68046;53.334;9.538;2023-05-10T15:31:00;4.05;;;3.13;;
78718;SDS011;68046;53.334;9.538;2023-05-10T15:33:30;4.65;;;3.60;;
78718;SDS011;68046;53.334;9.538;2023-05-10T15:36:00;5.07;;;3.85;;
78718;SDS011;68046;53.334;9.538;2023-05-10T15:38:30;4.50;;;3.30;;
78718;SDS011;68046;53.334;9.538;2023-05-10T15:41:00;4.78;;;3.45;;
78718;SDS011;68046;53.334;9.538;2023-05-10T16:40:28;3.78;;;2.97;;
78718;SDS011;68046;53.334;9.538;2023-05-10T16:42:58;3.67;;;2.92;;
78718;SDS011;68046;53.334;9.538;2023-05-10T16:45:29;4.82;;;2.97;;